createdAt,value
2022-09-23T00:02:12.166Z,96.79
2022-09-23T00:04:41.547Z,96.20
2022-09-23T00:07:08.894Z,96.61
2022-09-23T00:09:35.657Z,96.48
2022-09-23T00:12:06.887Z,96.88
2022-09-23T00:14:37.234Z,97.17
2022-09-23T00:17:04.157Z,97.58
2022-09-23T00:19:31.182Z,97.26
2022-09-23T00:21:59.361Z,97.94
2022-09-23T00:24:26.161Z,96.80
2022-09-23T00:26:52.948Z,97.16
2022-09-23T00:29:19.785Z,97.01
2022-09-23T00:31:46.529Z,97.95
2022-09-23T00:34:13.501Z,97.66
2022-09-23T00:36:42.562Z,98.62
2022-09-23T00:39:10.790Z,97.53
2022-09-23T00:41:37.559Z,97.72
2022-09-23T00:44:37.658Z,97.60
2022-09-23T00:47:04.882Z,97.93
2022-09-23T00:49:31.690Z,96.97
2022-09-23T00:52:06.504Z,98.83
2022-09-23T00:54:35.093Z,99.09
2022-09-23T00:57:03.924Z,96.48
2022-09-23T00:59:30.901Z,98.57
2022-09-23T01:01:59.615Z,97.91
2022-09-23T01:04:28.674Z,99.11
2022-09-23T01:06:55.460Z,99.04
2022-09-23T01:09:23.758Z,98.07
2022-09-23T01:12:01.572Z,98.49
2022-09-23T01:14:40.539Z,98.39
2022-09-23T01:17:11.366Z,97.86
2022-09-23T01:20:03.476Z,97.89
2022-09-23T01:22:39.510Z,99.21
2022-09-23T01:25:28.151Z,98.70
2022-09-23T01:28:17.884Z,99.25
2022-09-23T01:30:51.985Z,98.75
2022-09-23T01:33:25.014Z,99.30
2022-09-23T01:36:15.589Z,100.00
2022-09-23T01:38:51.220Z,99.43
2022-09-23T01:41:36.721Z,98.43
2022-09-23T01:44:08.834Z,98.02
2022-09-23T01:46:44.385Z,97.80
2022-09-23T01:49:17.416Z,98.02
2022-09-23T01:51:48.114Z,98.20
2022-09-23T01:54:19.919Z,97.58
2022-09-23T01:56:52.452Z,96.81
2022-09-23T01:59:26.377Z,95.54
2022-09-23T02:01:57.708Z,96.33
2022-09-23T02:04:33.361Z,95.30
2022-09-23T02:07:05.272Z,96.42
2022-09-23T02:09:36.213Z,96.05
2022-09-23T02:12:08.493Z,94.65
2022-09-23T02:14:41.469Z,94.24
2022-09-23T02:17:15.812Z,94.54
2022-09-23T02:19:47.927Z,94.18
2022-09-23T02:22:19.420Z,94.06
2022-09-23T02:24:46.234Z,94.25
2022-09-23T02:27:21.751Z,94.19
2022-09-23T02:29:57.070Z,94.24
2022-09-23T02:32:33.661Z,94.38
2022-09-23T02:35:10.164Z,94.35
2022-09-23T02:37:43.788Z,92.89
2022-09-23T02:40:16.968Z,92.35
2022-09-23T02:42:52.871Z,92.16
2022-09-23T02:45:19.982Z,92.29
2022-09-23T02:47:54.965Z,91.86
2022-09-23T02:50:22.360Z,91.22
2022-09-23T02:52:49.669Z,90.32
2022-09-23T02:55:18.541Z,90.21
2022-09-23T02:57:46.108Z,89.42
2022-09-23T03:00:14.199Z,90.10
2022-09-23T03:03:04.121Z,89.64
2022-09-23T03:05:38.151Z,89.77
2022-09-23T03:08:10.256Z,89.94
2022-09-23T03:10:46.501Z,90.24
2022-09-23T03:13:19.212Z,89.91
2022-09-23T03:15:52.404Z,91.06
2022-09-23T03:18:26.095Z,90.81
2022-09-23T03:20:57.861Z,90.99
2022-09-23T03:23:31.622Z,90.44
2022-09-23T03:26:01.869Z,91.39
2022-09-23T03:28:29.369Z,91.13
2022-09-23T03:31:00.358Z,90.01
2022-09-23T03:33:29.071Z,88.57
2022-09-23T03:36:19.314Z,88.40
2022-09-23T03:38:51.159Z,88.77
2022-09-23T03:41:25.050Z,87.64
2022-09-23T03:43:53.402Z,87.58
2022-09-23T03:46:20.226Z,87.62
2022-09-23T03:48:49.281Z,86.43
2022-09-23T03:51:22.430Z,85.22
2022-09-23T03:53:49.394Z,85.04
2022-09-23T03:56:16.870Z,85.04
2022-09-23T03:58:45.459Z,86.98
2022-09-23T04:01:14.769Z,87.34
2022-09-23T04:03:41.861Z,86.64
2022-09-23T04:06:10.069Z,86.62
2022-09-23T04:08:36.812Z,85.92
2022-09-23T04:11:04.807Z,86.85
2022-09-23T04:13:32.058Z,87.11
2022-09-23T04:15:59.019Z,87.36
2022-09-23T04:18:25.896Z,87.89
2022-09-23T04:20:57.676Z,87.25
2022-09-23T04:23:26.100Z,86.99
2022-09-23T04:25:53.560Z,86.52
2022-09-23T04:28:20.486Z,87.21
2022-09-23T04:30:48.850Z,87.88
2022-09-23T04:33:16.260Z,86.73
2022-09-23T04:35:43.556Z,86.30
2022-09-23T04:38:12.491Z,86.78
2022-09-23T04:40:40.919Z,88.58
2022-09-23T04:43:11.664Z,86.15
2022-09-23T04:45:40.205Z,85.37
2022-09-23T04:48:09.586Z,86.22
2022-09-23T04:50:37.747Z,85.45
2022-09-23T04:53:05.034Z,85.43
2022-09-23T04:55:31.912Z,86.67
2022-09-23T04:58:00.056Z,85.93
2022-09-23T05:00:28.739Z,85.55
2022-09-23T05:02:55.694Z,85.97
2022-09-23T05:05:24.221Z,86.41
2022-09-23T05:07:51.750Z,87.07
2022-09-23T05:10:18.674Z,87.29
2022-09-23T05:12:45.483Z,87.46
2022-09-23T05:15:15.184Z,85.74
2022-09-23T05:17:42.884Z,86.44
2022-09-23T05:20:11.192Z,86.20
2022-09-23T05:22:38.052Z,85.20
2022-09-23T05:25:05.537Z,85.77
2022-09-23T05:27:32.392Z,84.99
2022-09-23T05:30:01.077Z,84.28
2022-09-23T05:32:29.228Z,84.41
2022-09-23T05:34:55.983Z,85.22
2022-09-23T05:37:23.350Z,85.99
2022-09-23T05:39:50.300Z,85.72
2022-09-23T05:42:21.207Z,86.09
2022-09-23T05:44:48.023Z,85.67
2022-09-23T05:47:14.847Z,85.43
2022-09-23T05:49:59.159Z,85.61
2022-09-23T05:52:27.145Z,86.15
2022-09-23T05:54:53.901Z,85.81
2022-09-23T05:57:21.506Z,87.23
2022-09-23T05:59:48.439Z,85.80
2022-09-23T06:02:15.418Z,85.67
2022-09-23T06:04:43.988Z,85.59
2022-09-23T06:07:11.358Z,86.11
2022-09-23T06:09:38.126Z,86.91
2022-09-23T06:12:06.415Z,87.21
2022-09-23T06:14:33.403Z,86.08
2022-09-23T06:17:00.261Z,86.06
2022-09-23T06:19:26.995Z,87.34
2022-09-23T06:21:55.152Z,85.69
2022-09-23T06:24:24.926Z,85.13
2022-09-23T06:26:55.886Z,84.47
2022-09-23T06:29:22.653Z,84.91
2022-09-23T06:31:49.557Z,84.60
2022-09-23T06:34:16.654Z,85.28
2022-09-23T06:36:45.817Z,85.34
2022-09-23T06:39:15.391Z,83.56
2022-09-23T06:41:42.376Z,83.15
2022-09-23T06:44:09.317Z,82.25
2022-09-23T06:46:37.010Z,82.43
2022-09-23T06:49:03.943Z,82.31
2022-09-23T06:51:30.739Z,82.36
2022-09-23T06:53:57.521Z,81.03
2022-09-23T06:56:25.612Z,80.86
2022-09-23T06:58:53.133Z,81.64
2022-09-23T07:01:20.133Z,80.35
2022-09-23T07:03:48.385Z,79.46
2022-09-23T07:06:16.137Z,79.35
2022-09-23T07:08:44.688Z,79.07
2022-09-23T07:11:13.487Z,79.60
2022-09-23T07:13:42.696Z,78.82
2022-09-23T07:16:11.384Z,79.25
2022-09-23T07:18:38.948Z,78.88
2022-09-23T07:21:07.720Z,77.90
2022-09-23T07:23:34.853Z,78.41
2022-09-23T07:26:01.725Z,78.94
2022-09-23T07:28:29.144Z,78.85
2022-09-23T07:31:00.586Z,78.30
2022-09-23T07:33:33.075Z,80.41
2022-09-23T07:36:04.569Z,79.12
2022-09-23T07:38:31.447Z,78.80
2022-09-23T07:41:03.941Z,77.27
2022-09-23T07:43:33.808Z,77.92
2022-09-23T07:46:04.601Z,78.90
2022-09-23T07:48:34.294Z,78.06
2022-09-23T07:51:06.934Z,78.32
2022-09-23T07:53:33.787Z,77.72
2022-09-23T07:56:00.727Z,77.75
2022-09-23T07:58:27.502Z,77.09
2022-09-23T08:00:54.350Z,76.92
2022-09-23T08:03:22.807Z,78.09
2022-09-23T08:05:50.727Z,77.57
2022-09-23T08:08:17.510Z,76.50
2022-09-23T08:10:44.513Z,76.21
2022-09-23T08:13:11.369Z,75.76
2022-09-23T08:15:38.591Z,75.74
2022-09-23T08:18:05.621Z,75.56
2022-09-23T08:20:47.445Z,74.16
2022-09-23T08:23:16.741Z,74.30
2022-09-23T08:25:46.908Z,74.12
2022-09-23T08:28:16.307Z,74.38
2022-09-23T08:30:44.349Z,74.59
2022-09-23T08:33:11.905Z,74.46
2022-09-23T08:35:40.224Z,74.17
2022-09-23T08:38:07.960Z,73.98
2022-09-23T08:40:36.979Z,74.56
2022-09-23T08:43:07.215Z,76.12
2022-09-23T08:45:36.830Z,75.68
2022-09-23T08:48:12.799Z,74.55
2022-09-23T08:50:43.795Z,74.26
2022-09-23T08:53:19.297Z,74.99
2022-09-23T08:55:49.148Z,74.24
2022-09-23T08:58:35.184Z,74.70
2022-09-23T09:01:13.324Z,74.62
2022-09-23T09:03:45.439Z,75.52
2022-09-23T09:06:17.948Z,75.23
2022-09-23T09:08:51.371Z,74.86
2022-09-23T09:11:20.401Z,73.94
2022-09-23T09:13:57.118Z,73.80
2022-09-23T09:16:58.803Z,74.01
2022-09-23T09:19:38.815Z,72.79
2022-09-23T09:22:13.785Z,72.35
2022-09-23T09:24:40.551Z,73.02
2022-09-23T09:27:11.920Z,72.52
2022-09-23T09:29:43.515Z,70.95
2022-09-23T09:32:18.795Z,70.78
2022-09-23T09:34:54.129Z,69.90
2022-09-23T09:37:31.436Z,71.15
2022-09-23T09:39:58.355Z,70.79
2022-09-23T09:42:30.819Z,70.74
2022-09-23T09:45:01.770Z,71.52
2022-09-23T09:47:40.558Z,72.55
2022-09-23T09:50:10.336Z,71.46
2022-09-23T09:52:38.437Z,71.36
2022-09-23T09:55:25.389Z,70.96
2022-09-23T09:57:58.403Z,69.93
2022-09-23T10:00:38.994Z,71.20
2022-09-23T10:03:23.046Z,70.35
2022-09-23T10:05:52.295Z,70.40
2022-09-23T10:08:26.910Z,69.45
2022-09-23T10:11:00.902Z,69.71
2022-09-23T10:13:30.186Z,68.61
2022-09-23T10:15:58.278Z,67.99
2022-09-23T10:18:30.415Z,67.54
2022-09-23T10:21:05.747Z,66.33
2022-09-23T10:23:38.431Z,66.69
2022-09-23T10:26:10.386Z,66.41
2022-09-23T10:28:50.559Z,66.02
2022-09-23T10:31:26.690Z,65.82
2022-09-23T10:33:55.577Z,64.88
2022-09-23T10:36:22.373Z,66.22
2022-09-23T10:38:55.371Z,64.64
2022-09-23T10:41:50.286Z,66.12
2022-09-23T10:44:52.338Z,66.15
2022-09-23T10:47:32.021Z,67.26
2022-09-23T10:50:14.589Z,67.95
2022-09-23T10:52:49.120Z,68.46
2022-09-23T10:55:29.353Z,68.71
2022-09-23T10:58:14.180Z,68.48
2022-09-23T11:00:47.546Z,70.16
2022-09-23T11:03:39.450Z,69.96
2022-09-23T11:06:15.743Z,69.62
2022-09-23T11:09:10.380Z,69.77
2022-09-23T11:11:48.660Z,69.46
2022-09-23T11:14:44.762Z,70.00
2022-09-23T11:17:41.942Z,67.90
2022-09-23T11:20:26.275Z,67.88
2022-09-23T11:23:20.191Z,68.65
2022-09-23T11:25:54.753Z,67.98
2022-09-23T11:28:51.309Z,67.98
2022-09-23T11:31:31.495Z,66.12
2022-09-23T11:34:14.241Z,67.41
2022-09-23T11:36:46.646Z,67.95
2022-09-23T11:39:18.511Z,67.41
2022-09-23T11:41:46.892Z,68.12
2022-09-23T11:44:21.378Z,67.43
2022-09-23T11:46:54.580Z,66.83
2022-09-23T11:49:29.049Z,67.20
2022-09-23T11:52:06.184Z,67.03
2022-09-23T11:54:40.683Z,66.19
2022-09-23T11:57:20.955Z,67.19
2022-09-23T11:59:55.546Z,67.24
2022-09-23T12:02:30.519Z,66.78
2022-09-23T12:05:02.967Z,66.00
2022-09-23T12:07:43.516Z,65.41
2022-09-23T12:10:11.887Z,65.86
2022-09-23T12:12:48.136Z,66.39
2022-09-23T12:15:31.033Z,67.06
2022-09-23T12:18:29.136Z,68.55
2022-09-23T12:21:18.160Z,67.85
2022-09-23T12:24:19.149Z,67.25
2022-09-23T12:26:53.289Z,66.48
2022-09-23T12:29:20.664Z,66.56
2022-09-23T12:31:50.088Z,67.26
2022-09-23T12:34:23.391Z,66.15
2022-09-23T12:36:50.344Z,65.69
2022-09-23T12:39:22.824Z,67.61
2022-09-23T12:41:57.245Z,69.09
2022-09-23T12:44:31.783Z,69.54
2022-09-23T12:47:36.766Z,69.81
2022-09-23T12:50:51.172Z,72.55
2022-09-23T12:53:53.527Z,74.85
2022-09-23T12:56:23.656Z,74.10
2022-09-23T12:59:21.537Z,74.92
2022-09-23T13:01:48.697Z,76.16
2022-09-23T13:05:03.182Z,77.41
2022-09-23T13:07:34.158Z,76.49
2022-09-23T13:10:09.086Z,75.61
2022-09-23T13:12:39.458Z,75.37
2022-09-23T13:15:16.662Z,76.78
2022-09-23T13:17:43.594Z,77.22
2022-09-23T13:20:38.490Z,76.84
2022-09-23T13:23:20.166Z,79.18
2022-09-23T13:25:48.415Z,80.21
2022-09-23T13:28:26.316Z,82.28
2022-09-23T13:30:53.764Z,80.07
2022-09-23T13:33:28.563Z,80.19
2022-09-23T13:36:04.820Z,80.68
2022-09-23T13:38:33.433Z,81.72
2022-09-23T13:41:04.700Z,81.47
2022-09-23T13:43:40.951Z,80.79
2022-09-23T13:46:12.613Z,80.21
2022-09-23T13:48:40.203Z,79.85
2022-09-23T13:51:10.971Z,79.73
2022-09-23T13:53:38.123Z,78.20
2022-09-23T13:56:07.418Z,79.10
2022-09-23T13:58:35.621Z,77.66
2022-09-23T14:01:03.394Z,78.75
2022-09-23T14:03:36.624Z,77.72
2022-09-23T14:06:07.681Z,77.47
2022-09-23T14:08:38.337Z,77.23
2022-09-23T14:11:06.359Z,77.72
2022-09-23T14:13:40.432Z,77.81
2022-09-23T14:16:11.403Z,78.74
2022-09-23T14:18:40.842Z,78.53
2022-09-23T14:21:26.507Z,78.82
2022-09-23T14:23:54.866Z,79.42
2022-09-23T14:26:23.778Z,79.06
2022-09-23T14:28:50.827Z,79.00
2022-09-23T14:31:17.811Z,79.97
2022-09-23T14:33:44.628Z,80.19
2022-09-23T14:36:33.352Z,81.58
2022-09-23T14:39:07.389Z,82.32
2022-09-23T14:41:35.924Z,82.46
2022-09-23T14:44:03.334Z,83.59
2022-09-23T14:46:33.378Z,83.94
2022-09-23T14:49:08.422Z,85.26
2022-09-23T14:51:45.085Z,86.37
2022-09-23T14:54:44.167Z,86.49
2022-09-23T14:57:27.239Z,87.14
2022-09-23T14:59:59.120Z,86.90
2022-09-23T15:02:32.596Z,87.10
2022-09-23T15:05:15.666Z,87.00
2022-09-23T15:07:44.394Z,89.37
2022-09-23T15:10:20.022Z,88.95
2022-09-23T15:12:49.048Z,90.74
2022-09-23T15:15:17.349Z,92.20
2022-09-23T15:17:44.998Z,91.93
2022-09-23T15:20:19.904Z,91.79
2022-09-23T15:22:48.586Z,92.54
2022-09-23T15:25:20.697Z,94.39
2022-09-23T15:28:17.392Z,96.76
2022-09-23T15:30:44.623Z,95.68
2022-09-23T15:33:12.921Z,94.80
2022-09-23T15:35:45.372Z,95.88
2022-09-23T15:38:12.605Z,96.58
2022-09-23T15:40:41.420Z,98.10
2022-09-23T15:43:20.763Z,98.54
2022-09-23T15:45:53.231Z,99.17
2022-09-23T15:48:22.716Z,100.00
2022-09-23T15:50:50.533Z,99.82
2022-09-23T15:53:20.718Z,100.00
2022-09-23T15:55:52.962Z,100.00
2022-09-23T15:58:20.569Z,100.00
2022-09-23T16:00:52.231Z,99.72
2022-09-23T16:03:25.569Z,100.00
2022-09-23T16:05:52.425Z,100.00
2022-09-23T16:08:24.102Z,100.00
2022-09-23T16:10:53.608Z,100.00
2022-09-23T16:13:20.938Z,100.00
2022-09-23T16:15:47.800Z,100.00
2022-09-23T16:18:14.672Z,100.00
2022-09-23T16:20:44.537Z,100.00
2022-09-23T16:23:34.306Z,100.00
2022-09-23T16:26:06.116Z,100.00
2022-09-23T16:28:33.004Z,100.00
2022-09-23T16:30:59.953Z,100.00
2022-09-23T16:33:27.871Z,100.00
2022-09-23T16:35:55.210Z,100.00
2022-09-23T16:38:21.962Z,100.00
2022-09-23T16:40:48.901Z,100.00
2022-09-23T16:43:17.510Z,100.00
2022-09-23T16:45:45.996Z,100.00
2022-09-23T16:48:12.773Z,100.00
2022-09-23T16:50:40.336Z,100.00
2022-09-23T16:53:07.207Z,100.00
2022-09-23T16:55:34.208Z,100.00
2022-09-23T16:58:01.075Z,100.00
2022-09-23T17:00:47.944Z,100.00
2022-09-23T17:03:33.359Z,100.00
2022-09-23T17:06:03.422Z,100.00
2022-09-23T17:08:33.330Z,100.00
2022-09-23T17:11:00.921Z,100.00
2022-09-23T17:13:29.675Z,100.00
2022-09-23T17:15:58.012Z,100.00
2022-09-23T17:18:25.345Z,100.00
2022-09-23T17:21:00.506Z,100.00
2022-09-23T17:23:28.537Z,100.00
2022-09-23T17:25:55.352Z,100.00
2022-09-23T17:28:22.262Z,100.00
2022-09-23T17:30:51.536Z,100.00
2022-09-23T17:33:22.428Z,100.00
2022-09-23T17:35:49.511Z,100.00
2022-09-23T17:38:16.247Z,100.00
2022-09-23T17:40:50.131Z,100.00
2022-09-23T17:43:21.352Z,100.00
2022-09-23T17:45:49.981Z,100.00
2022-09-23T17:48:20.271Z,100.00
2022-09-23T17:50:55.869Z,100.00
2022-09-23T17:53:23.120Z,100.00
2022-09-23T17:55:57.980Z,100.00
2022-09-23T17:58:26.096Z,100.00
2022-09-23T18:00:52.969Z,100.00
2022-09-23T18:03:19.886Z,100.00
2022-09-23T18:05:46.728Z,100.00
2022-09-23T18:08:14.878Z,100.00
2022-09-23T18:10:41.803Z,100.00
2022-09-23T18:13:08.573Z,100.00
2022-09-23T18:15:36.778Z,100.00
2022-09-23T18:18:03.912Z,100.00
2022-09-23T18:20:31.227Z,100.00
2022-09-23T18:22:58.050Z,100.00
2022-09-23T18:25:39.325Z,100.00
2022-09-23T18:28:06.850Z,100.00
2022-09-23T18:30:33.691Z,100.00
2022-09-23T18:33:01.640Z,100.00
2022-09-23T18:35:28.531Z,100.00
2022-09-23T18:37:56.062Z,100.00
2022-09-23T18:40:22.986Z,100.00
2022-09-23T18:42:51.422Z,100.00
2022-09-23T18:45:18.256Z,100.00
2022-09-23T18:48:03.414Z,100.00
2022-09-23T18:50:44.024Z,100.00
2022-09-23T18:53:11.235Z,100.00
2022-09-23T18:55:40.652Z,100.00
2022-09-23T18:58:10.461Z,100.00
2022-09-23T19:00:37.313Z,100.00
2022-09-23T19:03:04.835Z,100.00
2022-09-23T19:05:34.193Z,100.00
2022-09-23T19:08:01.470Z,100.00
2022-09-23T19:10:28.313Z,100.00
2022-09-23T19:12:55.070Z,100.00
2022-09-23T19:15:23.312Z,100.00
2022-09-23T19:17:50.098Z,100.00
2022-09-23T19:20:16.884Z,100.00
2022-09-23T19:22:47.261Z,100.00
2022-09-23T19:25:14.302Z,100.00
2022-09-23T19:27:41.295Z,100.00
2022-09-23T19:30:09.951Z,100.00
2022-09-23T19:32:40.424Z,100.00
2022-09-23T19:35:07.880Z,100.00
2022-09-23T19:37:34.668Z,100.00
2022-09-23T19:40:01.904Z,100.00
2022-09-23T19:42:30.096Z,100.00
2022-09-23T19:44:56.945Z,100.00
2022-09-23T19:47:24.590Z,100.00
2022-09-23T19:49:52.721Z,100.00
2022-09-23T19:52:19.572Z,100.00
2022-09-23T19:54:48.788Z,100.00
2022-09-23T19:57:16.186Z,100.00
2022-09-23T19:59:43.018Z,100.00
2022-09-23T20:02:12.026Z,100.00
2022-09-23T20:04:38.865Z,100.00
2022-09-23T20:07:09.064Z,100.00
2022-09-23T20:09:35.929Z,100.00
2022-09-23T20:12:03.124Z,100.00
2022-09-23T20:14:31.245Z,100.00
2022-09-23T20:17:00.122Z,100.00
2022-09-23T20:19:26.910Z,100.00
2022-09-23T20:22:13.894Z,100.00
2022-09-23T20:24:42.102Z,100.00
2022-09-23T20:27:08.965Z,100.00
2022-09-23T20:29:35.984Z,100.00
2022-09-23T20:32:03.321Z,100.00
2022-09-23T20:34:32.111Z,100.00
2022-09-23T20:36:59.307Z,100.00
2022-09-23T20:39:26.124Z,100.00
2022-09-23T20:41:54.849Z,100.00
2022-09-23T20:44:21.746Z,100.00
2022-09-23T20:46:49.520Z,100.00
2022-09-23T20:49:17.194Z,100.00
2022-09-23T20:51:44.477Z,100.00
2022-09-23T20:54:12.297Z,100.00
2022-09-23T20:56:39.213Z,100.00
2022-09-23T20:59:07.325Z,100.00
2022-09-23T21:01:35.228Z,100.00
2022-09-23T21:04:04.969Z,100.00
2022-09-23T21:06:33.783Z,100.00
2022-09-23T21:09:00.888Z,100.00
2022-09-23T21:11:29.157Z,100.00
2022-09-23T21:13:56.570Z,100.00
2022-09-23T21:16:25.797Z,100.00
2022-09-23T21:18:52.795Z,100.00
2022-09-23T21:21:22.069Z,100.00
2022-09-23T21:23:50.112Z,100.00
2022-09-23T21:26:19.339Z,100.00
2022-09-23T21:28:48.452Z,100.00
2022-09-23T21:31:22.897Z,100.00
2022-09-23T21:33:54.153Z,100.00
2022-09-23T21:36:23.373Z,100.00
2022-09-23T21:38:51.014Z,100.00
2022-09-23T21:41:17.896Z,100.00
2022-09-23T21:43:45.576Z,100.00
2022-09-23T21:46:14.842Z,100.00
2022-09-23T21:48:42.556Z,100.00
2022-09-23T21:51:14.175Z,100.00
2022-09-23T21:53:42.353Z,100.00
2022-09-23T21:56:14.030Z,100.00
2022-09-23T21:58:43.912Z,100.00
2022-09-23T22:01:13.298Z,100.00
2022-09-23T22:03:40.451Z,100.00
2022-09-23T22:06:10.954Z,100.00
2022-09-23T22:08:40.035Z,100.00
2022-09-23T22:11:08.979Z,100.00
2022-09-23T22:13:35.790Z,100.00
2022-09-23T22:16:05.213Z,100.00
2022-09-23T22:18:32.307Z,100.00
2022-09-23T22:20:59.212Z,100.00
2022-09-23T22:23:27.416Z,100.00
2022-09-23T22:26:02.795Z,100.00
2022-09-23T22:28:50.731Z,100.00
2022-09-23T22:31:36.320Z,100.00
2022-09-23T22:34:03.131Z,100.00
2022-09-23T22:36:29.908Z,100.00
2022-09-23T22:39:00.646Z,100.00
2022-09-23T22:41:27.417Z,100.00
2022-09-23T22:43:54.169Z,100.00
2022-09-23T22:46:23.672Z,100.00
2022-09-23T22:48:53.225Z,100.00
2022-09-23T22:51:21.557Z,100.00
2022-09-23T22:53:48.659Z,100.00
2022-09-23T22:56:16.857Z,100.00
2022-09-23T22:58:43.820Z,100.00
2022-09-23T23:01:11.830Z,100.00
2022-09-23T23:03:40.317Z,100.00
2022-09-23T23:06:09.378Z,100.00
2022-09-23T23:08:37.284Z,100.00
2022-09-23T23:11:06.026Z,100.00
2022-09-23T23:13:34.326Z,100.00
2022-09-23T23:16:04.976Z,100.00
2022-09-23T23:18:33.111Z,100.00
2022-09-23T23:21:07.737Z,100.00
2022-09-23T23:23:37.500Z,100.00
2022-09-23T23:26:09.953Z,100.00
2022-09-23T23:28:38.750Z,100.00
2022-09-23T23:31:06.603Z,100.00
2022-09-23T23:33:33.647Z,100.00
2022-09-23T23:36:00.801Z,100.00
2022-09-23T23:38:27.716Z,100.00
2022-09-23T23:40:55.522Z,100.00
2022-09-23T23:43:23.607Z,100.00
2022-09-23T23:45:52.225Z,100.00
2022-09-23T23:48:19.731Z,100.00
2022-09-23T23:50:52.813Z,100.00
2022-09-23T23:53:19.665Z,100.00
2022-09-23T23:55:49.484Z,100.00
2022-09-23T23:58:18.038Z,100.00
